Disclaimer

Please do not use the information listed here in-flight or in-navigation, as they are not provided to us by the airports but are provided by volunteers, so they might be outdated.

Search


Regions


Airport information page

Radio informations:
Tower (TWR) - 120.6 MHz
HALIFAX RDO - 123.275 MHz
Ground (GND) - 121.9 MHz
GANDER CNTR - 133.15 MHz
Automatic Terminal Information Service (ATIS) - 128.0 MHz

Airport informations:
Latitude: 47° 37' 07.00" N
Longitude: 052° 45' 07.00" W
Elevation: 461 feet - 141 meters
Operating hours: N/A
Operating agency: Municipal
Timezone: Second Sunday in March at 0200 to first Sunday in November at 0200 local time (Exception Arizona and that portion of Indiana in the Eastern Time Zone)
Fuel: Jet A1, without icing nhibitor.

100/130 MIL Spec, low lead, aviation gasoline (BLUE)

Runway information:
02/20 - 5028 x 100 feet< - >1533 x 30 meters
11/29 - 8502 x 200 feet< - >2591 x 61 meters
16/34 - 7005 x 200 feet< - >2135 x 61 meters

Recent METARs:
CYYT 181700Z 28019G26KT 15SM SCT030 SCT050 BKN240 01/M05 A2987 RMK CU3SC1CI2 SC TR SLP124
CYYT 181755Z 30019KT 15SM SCT030 01/M04 A2988 RMK CU3 SLP127
CYYT 181800Z 29021KT 15SM SCT030 01/M05 A2988 RMK CU3 SLP128

Airport on the map: